Ertholm — OVJX — position and weather

sailwx.info

Track history (hours):
 
Tides and Currents Weather Stations Pressure Air Temp Water Temp Dewpoint Dewpoint Depression Visibility Wind Speed Wind Dir Waves Ship Positions

Ertholm

Last reported at 2015-Jul-28 19:33 UTC. Time now 2015-Jul-28 19:43 UTC.
Position N 55°13' E 014°58'.

Length 38 m; draft 2.3 m.

Type: Ship. MMSI: 219000751.

Date/timePositionNaut miles runAvg speedWind from/ knotsBaromVisibWave heightAir tempDewpointWater temp
2015-Jul-28 19:33N 55°13' E 014°58'0 0.0
2015-Jul-28 18:33N 55°13' E 014°58'9 9.4
2015-Jul-28 17:33N 55°19' E 015°10'4 3.8
2015-Jul-28 16:33N 55°17' E 015°05'6 5.6
2015-Jul-28 15:33N 55°13' E 014°58'7 6.9
2015-Jul-28 14:33N 55°18' E 015°07'3 3.1
2015-Jul-28 13:33N 55°16' E 015°02'1 0.6
2015-Jul-28 12:33N 55°17' E 015°03'5 5.5
2015-Jul-28 11:33N 55°19' E 015°11'9 9.5
2015-Jul-28 10:33N 55°13' E 014°59'5 4.9
2015-Jul-28 09:33N 55°16' E 015°05'1 1.1
2015-Jul-28 08:33N 55°17' E 015°06'6 6.4
2015-Jul-28 07:33N 55°13' E 014°58'0 0.0
2015-Jul-28 06:33N 55°13' E 014°58'0 0.0
2015-Jul-28 05:33N 55°13' E 014°58'0 0.0
2015-Jul-28 04:33N 55°13' E 014°58'0 0.0
2015-Jul-28 03:33N 55°13' E 014°58'0 0.0
2015-Jul-28 02:33N 55°13' E 014°58'0 0.0
2015-Jul-28 01:33N 55°13' E 014°58'0 0.0
2015-Jul-28 00:33N 55°13' E 014°58'0 0.0
2015-Jul-27 23:33N 55°13' E 014°58'0 0.0
2015-Jul-27 22:33N 55°13' E 014°58'0 0.0
2015-Jul-27 21:33N 55°13' E 014°58'0 0.0
2015-Jul-27 20:33N 55°13' E 014°58'0 0.0
2015-Jul-27 19:33N 55°13' E 014°58'0 0.0
2015-Jul-27 18:33N 55°13' E 014°58'0 0.0
2015-Jul-27 17:33N 55°13' E 014°58'0 0.0
2015-Jul-27 16:33N 55°13' E 014°58'0 0.0
2015-Jul-27 15:33N 55°13' E 014°58'7 6.7
2015-Jul-27 14:33N 55°17' E 015°07'2 1.9
2015-Jul-27 13:33N 55°16' E 015°04'1 0.6
2015-Jul-27 12:33N 55°16' E 015°03'6 5.6
2015-Jul-27 11:33N 55°19' E 015°11'9 9.1
2015-Jul-27 10:33N 55°13' E 014°60'5 5.3
2015-Jul-27 09:33N 55°17' E 015°06'1 0.6
2015-Jul-27 08:33N 55°17' E 015°06'7 6.6
2015-Jul-27 07:33N 55°13' E 014°58'0 0.0
2015-Jul-27 06:33N 55°13' E 014°58'0 0.0
2015-Jul-27 05:33N 55°13' E 014°58'0 0.0
2015-Jul-27 04:33N 55°13' E 014°58'0 0.0
2015-Jul-27 03:33N 55°13' E 014°58'0 0.0
2015-Jul-27 02:33N 55°13' E 014°58'0 0.0
2015-Jul-27 01:33N 55°13' E 014°58'0 0.0
2015-Jul-27 00:33N 55°13' E 014°58'0 0.0
2015-Jul-26 23:33N 55°13' E 014°58'0 0.0
2015-Jul-26 22:33N 55°13' E 014°58'0 0.0
2015-Jul-26 21:33N 55°13' E 014°58'0 0.0
2015-Jul-26 20:33N 55°13' E 014°58'0 0.0
2015-Jul-26 19:33N 55°13' E 014°58'0 0.0
2015-Jul-26 18:33N 55°13' E 014°58'0 0.0
2015-Jul-26 17:33N 55°13' E 014°58'0 0.0
2015-Jul-26 16:33N 55°13' E 014°58'0 0.0
2015-Jul-26 15:33N 55°13' E 014°58'0 0.0
2015-Jul-26 14:33N 55°13' E 014°58'0 0.0
2015-Jul-26 13:33N 55°13' E 014°58'0 0.0
2015-Jul-26 12:33N 55°13' E 014°58'0 0.0
2015-Jul-26 11:33N 55°13' E 014°58'8 7.6
2015-Jul-26 10:33N 55°17' E 015°09'4 4.1
2015-Jul-26 09:33N 55°18' E 015°02'5 5.1
2015-Jul-26 08:33N 55°13' E 014°58'2 2.1
2015-Jul-26 07:33N 55°14' E 014°55'3 3.0
2015-Jul-26 06:33N 55°15' E 014°50'0 0.0
2015-Jul-26 05:33N 55°15' E 014°50'0 0.0
2015-Jul-26 04:33N 55°15' E 014°50'0 0.0
2015-Jul-26 03:33N 55°15' E 014°50'0 0.0
2015-Jul-26 02:33N 55°15' E 014°50'0 0.0
2015-Jul-26 01:33N 55°15' E 014°50'0 0.0
2015-Jul-26 00:33N 55°15' E 014°50'0 0.0
2015-Jul-25 23:33N 55°15' E 014°50'0 0.0
2015-Jul-25 22:33N 55°15' E 014°50'0 0.0
2015-Jul-25 21:33N 55°15' E 014°50'0 0.0
2015-Jul-25 20:33N 55°15' E 014°50'0 0.0
2015-Jul-25 19:33N 55°15' E 014°50'0 0.0
2015-Jul-25 18:33N 55°15' E 014°50'0 0.0
2015-Jul-25 17:33N 55°15' E 014°50'0 0.0
2015-Jul-25 16:33N 55°15' E 014°50'0 0.0
2015-Jul-25 15:33N 55°15' E 014°50'0 0.0
2015-Jul-25 14:33N 55°15' E 014°50'0 0.3
2015-Jul-25 13:33N 55°15' E 014°50'8 7.8
2015-Jul-25 12:33N 55°16' E 015°04'5 5.5
2015-Jul-25 11:33N 55°19' E 015°11'10 9.7
2015-Jul-25 10:33N 55°13' E 014°58'6 6.4
2015-Jul-25 09:33N 55°17' E 015°07'1 1.3
2015-Jul-25 08:33N 55°16' E 015°05'5 5.2
2015-Jul-25 07:33N 55°13' E 014°58'0 0.2
2015-Jul-25 06:34N 55°13' E 014°58'0 0.3
2015-Jul-25 05:33N 55°13' E 014°58'0 0.0
2015-Jul-25 04:33N 55°13' E 014°58'0 0.0
2015-Jul-25 03:33N 55°13' E 014°58'0 0.0
2015-Jul-25 02:33N 55°13' E 014°58'0 0.0
2015-Jul-25 01:33N 55°13' E 014°58'0 0.0
2015-Jul-25 00:33N 55°13' E 014°58'0 0.0
2015-Jul-24 23:33N 55°13' E 014°58'0 0.0
2015-Jul-24 22:33N 55°13' E 014°58'0 0.0
2015-Jul-24 21:33N 55°13' E 014°58'0 0.0
2015-Jul-24 20:33N 55°13' E 014°58'0 0.0
2015-Jul-24 19:33N 55°13' E 014°58'0 0.0
2015-Jul-24 18:33N 55°13' E 014°58'0 0.0
2015-Jul-24 17:33N 55°13' E 014°58'0 0.0
2015-Jul-24 16:33N 55°13' E 014°58'0 0.0
2015-Jul-24 15:33N 55°13' E 014°58'7 6.6
2015-Jul-24 14:33N 55°17' E 015°07'2 1.5
2015-Jul-24 13:33N 55°16' E 015°05'1 1.2
2015-Jul-24 12:33N 55°15' E 015°03'6 5.9
2015-Jul-24 11:33N 55°19' E 015°11'9 9.3
2015-Jul-24 10:33N 55°13' E 014°59'6 5.5
2015-Jul-24 09:33N 55°17' E 015°06'0 0.3
2015-Jul-24 08:33N 55°17' E 015°06'6 5.9
2015-Jul-24 07:33N 55°13' E 014°58'0 0.0
2015-Jul-24 06:33N 55°13' E 014°58'0 0.0
2015-Jul-24 05:33N 55°13' E 014°58'0 0.0
2015-Jul-24 04:33N 55°13' E 014°58'0 0.0
2015-Jul-24 03:33N 55°13' E 014°58'0 0.0
2015-Jul-24 02:33N 55°13' E 014°58'0 0.0
2015-Jul-24 01:33N 55°13' E 014°58'0 0.0
2015-Jul-24 00:33N 55°13' E 014°58'0 0.0
2015-Jul-23 23:33N 55°13' E 014°58'0 0.0
2015-Jul-23 22:33N 55°13' E 014°58'0 0.0
2015-Jul-23 21:33N 55°13' E 014°58'0 0.0
2015-Jul-23 20:33N 55°13' E 014°58'0 0.0
2015-Jul-23 19:33N 55°13' E 014°58'0 0.0
2015-Jul-23 18:33N 55°13' E 014°58'10 9.6
2015-Jul-23 17:33N 55°19' E 015°11'5 5.4
2015-Jul-23 16:33N 55°16' E 015°02'4 4.3
2015-Jul-23 15:33N 55°13' E 014°58'8 7.7
2015-Jul-23 14:33N 55°18' E 015°09'5 4.6
2015-Jul-23 13:33N 55°17' E 015°01'3 3.1
2015-Jul-23 12:33N 55°15' E 015°06'5 5.1
2015-Jul-23 11:33N 55°19' E 015°11'9 9.4
2015-Jul-23 10:33N 55°13' E 014°59'7 6.8
2015-Jul-23 09:33N 55°18' E 015°08'3 2.7
2015-Jul-23 08:33N 55°18' E 015°03'5 5.5
2015-Jul-23 07:33N 55°13' E 014°58'0 0.0
2015-Jul-23 06:33N 55°13' E 014°58'0 0.0
2015-Jul-23 05:33N 55°13' E 014°58'0 0.0
2015-Jul-23 04:33N 55°13' E 014°58'0 0.0
2015-Jul-23 03:33N 55°13' E 014°58'0 0.0
2015-Jul-23 02:33N 55°13' E 014°58'0 0.0
2015-Jul-23 01:33N 55°13' E 014°58'0 0.0
2015-Jul-23 00:33N 55°13' E 014°58'0 0.0
2015-Jul-22 23:33N 55°13' E 014°58'0 0.0
2015-Jul-22 22:33N 55°13' E 014°58'0 0.0
2015-Jul-22 21:33N 55°13' E 014°58'0 0.0
2015-Jul-22 20:33N 55°13' E 014°58'0 0.0
2015-Jul-22 19:33N 55°13' E 014°58'0 0.0
2015-Jul-22 18:33N 55°13' E 014°58'1010.0
2015-Jul-22 17:33N 55°20' E 015°11'6 5.6
2015-Jul-22 16:33N 55°16' E 015°03'5 4.5
2015-Jul-22 15:33N 55°13' E 014°58'7 7.1
2015-Jul-22 14:33N 55°18' E 015°07'3 2.6
2015-Jul-22 13:33N 55°16' E 015°04'1 1.0
2015-Jul-22 12:33N 55°15' E 015°03'6 6.3
2015-Jul-22 11:33N 55°19' E 015°11'10 9.8
2015-Jul-22 10:33N 55°13' E 014°58'5 5.1
2015-Jul-22 09:33N 55°16' E 015°05'1 1.0
2015-Jul-22 08:33N 55°17' E 015°06'6 6.1
2015-Jul-22 07:33N 55°13' E 014°58'0 0.0
2015-Jul-22 06:33N 55°13' E 014°58'0 0.0
2015-Jul-22 05:33N 55°13' E 014°58'0 0.0
2015-Jul-22 04:33N 55°13' E 014°58'0 0.0
2015-Jul-22 03:33N 55°13' E 014°58'0 0.0
2015-Jul-22 02:33N 55°13' E 014°58'0 0.0
2015-Jul-22 01:33N 55°13' E 014°58'0 0.0
2015-Jul-22 00:33N 55°13' E 014°58'0 0.0
2015-Jul-21 23:33N 55°13' E 014°58'0 0.0
2015-Jul-21 22:33N 55°13' E 014°58'0 0.0
2015-Jul-21 21:33N 55°13' E 014°58'0 0.0
2015-Jul-21 20:33N 55°13' E 014°58'0 0.0
2015-Jul-21 19:33N 55°13' E 014°58'0 0.0
2015-Jul-21 18:33N 55°13' E 014°58'10 9.9
2015-Jul-21 17:33N 55°19' E 015°11'6 5.7
2015-Jul-21 16:33N 55°17' E 015°02'5 4.7
2015-Jul-21 15:33N 55°13' E 014°58'7 7.1
2015-Jul-21 14:33N 55°18' E 015°07'2 1.9
2015-Jul-21 13:33N 55°17' E 015°05'2 1.5
2015-Jul-21 12:33N 55°15' E 015°03'6 6.0
2015-Jul-21 11:33N 55°19' E 015°11'10 9.6
2015-Jul-21 10:33N 55°13' E 014°59'6 6.0
2015-Jul-21 09:33N 55°17' E 015°06'1 0.6
2015-Jul-21 08:33N 55°17' E 015°06'6 6.4
2015-Jul-21 07:33N 55°13' E 014°58'0 0.0
2015-Jul-21 06:33N 55°13' E 014°58'0 0.0
2015-Jul-21 05:33N 55°13' E 014°58'0 0.0
2015-Jul-21 04:33N 55°13' E 014°58'0 0.0
2015-Jul-21 03:33N 55°13' E 014°58'0 0.0
2015-Jul-21 02:33N 55°13' E 014°58'0 0.0
2015-Jul-21 01:33N 55°13' E 014°58'0 0.0
2015-Jul-21 00:33N 55°13' E 014°58'0 0.0
2015-Jul-20 23:33N 55°13' E 014°58'0 0.0
2015-Jul-20 22:33N 55°13' E 014°58'0 0.0
2015-Jul-20 21:32N 55°13' E 014°58'0 0.0
2015-Jul-20 20:33N 55°13' E 014°58'0 0.0
2015-Jul-20 19:33N 55°13' E 014°58'0 0.0
2015-Jul-20 18:33N 55°13' E 014°58'0 0.0
2015-Jul-20 17:33N 55°13' E 014°58'0 0.0
2015-Jul-20 16:33N 55°13' E 014°58'0 0.0
2015-Jul-20 15:33N 55°13' E 014°58'7 7.3
2015-Jul-20 14:33N 55°17' E 015°09'4 3.6
2015-Jul-20 13:33N 55°17' E 015°03'3 2.9
2015-Jul-20 12:33N 55°15' E 015°06'6 5.5
2015-Jul-20 11:33N 55°19' E 015°11'10 9.6
2015-Jul-20 10:33N 55°13' E 014°58'6 5.9
2015-Jul-20 09:33N 55°17' E 015°06'2 1.6
2015-Jul-20 08:33N 55°18' E 015°03'6 5.6
2015-Jul-20 07:33N 55°13' E 014°58'0 0.0
2015-Jul-20 06:33N 55°13' E 014°58'0 0.0
2015-Jul-20 05:33N 55°13' E 014°58'0 0.0
2015-Jul-20 04:33N 55°13' E 014°58'0 0.0
2015-Jul-20 03:33N 55°13' E 014°58'0 0.0
2015-Jul-20 02:33N 55°13' E 014°58'0 0.0
2015-Jul-20 01:33N 55°13' E 014°58'0 0.0
2015-Jul-20 00:33N 55°13' E 014°58'0 0.0
2015-Jul-19 23:33N 55°13' E 014°58'0 0.0
2015-Jul-19 22:33N 55°13' E 014°58'0 0.0
2015-Jul-19 21:32N 55°13' E 014°58'0 0.0
2015-Jul-19 20:33N 55°13' E 014°58'0 0.0
2015-Jul-19 19:28N 55°13' E 014°58'0 0.0
2015-Jul-19 18:33N 55°13' E 014°58'0 0.0
2015-Jul-19 17:33N 55°13' E 014°58'0 0.0
2015-Jul-19 16:33N 55°13' E 014°58'0 0.0
2015-Jul-19 15:33N 55°13' E 014°58'7 6.9
2015-Jul-19 14:33N 55°17' E 015°07'2 2.0
2015-Jul-19 13:33N 55°16' E 015°04'2 1.6
2015-Jul-19 12:33N 55°15' E 015°02'7 6.5
2015-Jul-19 11:33N 55°19' E 015°11'10 9.6
2015-Jul-19 10:33N 55°13' E 014°58'7 6.4
2015-Jul-19 09:30N 55°17' E 015°07'1 1.4
2015-Jul-19 08:33N 55°17' E 015°05'6 5.4
2015-Jul-19 07:30N 55°13' E 014°58'0 0.0
2015-Jul-19 06:33N 55°13' E 014°58'0 0.0
2015-Jul-19 05:33N 55°13' E 014°58'0 0.0
2015-Jul-19 04:33N 55°13' E 014°58'0 0.0
2015-Jul-19 00:33N 55°13' E 014°58'0 0.0
2015-Jul-18 23:33N 55°13' E 014°58'0 0.0
2015-Jul-18 22:33N 55°13' E 014°58'0 0.0
2015-Jul-18 21:33N 55°13' E 014°58'0 0.0
2015-Jul-18 20:33N 55°13' E 014°58'  
Track history (hours):
 
Tides and Currents Weather Stations Pressure Air Temp Water Temp Dewpoint Dewpoint Depression Visibility Wind Speed Wind Dir Waves Ship Positions

Ertholm

Last reported at 2015-Jul-28 19:33 UTC. Time now 2015-Jul-28 19:43 UTC.
Position N 55°13' E 014°58'.

Length 38 m; draft 2.3 m.

Type: Ship. MMSI: 219000751.

Date/timePositionNaut miles runAvg speedWind from/ knotsBaromVisibWave heightAir tempDewpointWater temp
2015-Jul-28 19:33N 55°13' E 014°58'0 0.0
2015-Jul-28 18:33N 55°13' E 014°58'9 9.4
2015-Jul-28 17:33N 55°19' E 015°10'4 3.8
2015-Jul-28 16:33N 55°17' E 015°05'6 5.6
2015-Jul-28 15:33N 55°13' E 014°58'7 6.9
2015-Jul-28 14:33N 55°18' E 015°07'3 3.1
2015-Jul-28 13:33N 55°16' E 015°02'1 0.6
2015-Jul-28 12:33N 55°17' E 015°03'5 5.5
2015-Jul-28 11:33N 55°19' E 015°11'9 9.5
2015-Jul-28 10:33N 55°13' E 014°59'5 4.9
2015-Jul-28 09:33N 55°16' E 015°05'1 1.1
2015-Jul-28 08:33N 55°17' E 015°06'6 6.4
2015-Jul-28 07:33N 55°13' E 014°58'0 0.0
2015-Jul-28 06:33N 55°13' E 014°58'0 0.0
2015-Jul-28 05:33N 55°13' E 014°58'0 0.0
2015-Jul-28 04:33N 55°13' E 014°58'0 0.0
2015-Jul-28 03:33N 55°13' E 014°58'0 0.0
2015-Jul-28 02:33N 55°13' E 014°58'0 0.0
2015-Jul-28 01:33N 55°13' E 014°58'0 0.0
2015-Jul-28 00:33N 55°13' E 014°58'0 0.0
2015-Jul-27 23:33N 55°13' E 014°58'0 0.0
2015-Jul-27 22:33N 55°13' E 014°58'0 0.0
2015-Jul-27 21:33N 55°13' E 014°58'0 0.0
2015-Jul-27 20:33N 55°13' E 014°58'0 0.0
2015-Jul-27 19:33N 55°13' E 014°58'0 0.0
2015-Jul-27 18:33N 55°13' E 014°58'0 0.0
2015-Jul-27 17:33N 55°13' E 014°58'0 0.0
2015-Jul-27 16:33N 55°13' E 014°58'0 0.0
2015-Jul-27 15:33N 55°13' E 014°58'7 6.7
2015-Jul-27 14:33N 55°17' E 015°07'2 1.9
2015-Jul-27 13:33N 55°16' E 015°04'1 0.6
2015-Jul-27 12:33N 55°16' E 015°03'6 5.6
2015-Jul-27 11:33N 55°19' E 015°11'9 9.1
2015-Jul-27 10:33N 55°13' E 014°60'5 5.3
2015-Jul-27 09:33N 55°17' E 015°06'1 0.6
2015-Jul-27 08:33N 55°17' E 015°06'7 6.6
2015-Jul-27 07:33N 55°13' E 014°58'0 0.0
2015-Jul-27 06:33N 55°13' E 014°58'0 0.0
2015-Jul-27 05:33N 55°13' E 014°58'0 0.0
2015-Jul-27 04:33N 55°13' E 014°58'0 0.0
2015-Jul-27 03:33N 55°13' E 014°58'0 0.0
2015-Jul-27 02:33N 55°13' E 014°58'0 0.0
2015-Jul-27 01:33N 55°13' E 014°58'0 0.0
2015-Jul-27 00:33N 55°13' E 014°58'0 0.0
2015-Jul-26 23:33N 55°13' E 014°58'0 0.0
2015-Jul-26 22:33N 55°13' E 014°58'0 0.0
2015-Jul-26 21:33N 55°13' E 014°58'0 0.0
2015-Jul-26 20:33N 55°13' E 014°58'0 0.0
2015-Jul-26 19:33N 55°13' E 014°58'0 0.0
2015-Jul-26 18:33N 55°13' E 014°58'0 0.0
2015-Jul-26 17:33N 55°13' E 014°58'0 0.0
2015-Jul-26 16:33N 55°13' E 014°58'0 0.0
2015-Jul-26 15:33N 55°13' E 014°58'0 0.0
2015-Jul-26 14:33N 55°13' E 014°58'0 0.0
2015-Jul-26 13:33N 55°13' E 014°58'0 0.0
2015-Jul-26 12:33N 55°13' E 014°58'0 0.0
2015-Jul-26 11:33N 55°13' E 014°58'8 7.6
2015-Jul-26 10:33N 55°17' E 015°09'4 4.1
2015-Jul-26 09:33N 55°18' E 015°02'5 5.1
2015-Jul-26 08:33N 55°13' E 014°58'2 2.1
2015-Jul-26 07:33N 55°14' E 014°55'3 3.0
2015-Jul-26 06:33N 55°15' E 014°50'0 0.0
2015-Jul-26 05:33N 55°15' E 014°50'0 0.0
2015-Jul-26 04:33N 55°15' E 014°50'0 0.0
2015-Jul-26 03:33N 55°15' E 014°50'0 0.0
2015-Jul-26 02:33N 55°15' E 014°50'0 0.0
2015-Jul-26 01:33N 55°15' E 014°50'0 0.0
2015-Jul-26 00:33N 55°15' E 014°50'0 0.0
2015-Jul-25 23:33N 55°15' E 014°50'0 0.0
2015-Jul-25 22:33N 55°15' E 014°50'0 0.0
2015-Jul-25 21:33N 55°15' E 014°50'0 0.0
2015-Jul-25 20:33N 55°15' E 014°50'0 0.0
2015-Jul-25 19:33N 55°15' E 014°50'0 0.0
2015-Jul-25 18:33N 55°15' E 014°50'0 0.0
2015-Jul-25 17:33N 55°15' E 014°50'0 0.0
2015-Jul-25 16:33N 55°15' E 014°50'0 0.0
2015-Jul-25 15:33N 55°15' E 014°50'0 0.0
2015-Jul-25 14:33N 55°15' E 014°50'0 0.3
2015-Jul-25 13:33N 55°15' E 014°50'8 7.8
2015-Jul-25 12:33N 55°16' E 015°04'5 5.5
2015-Jul-25 11:33N 55°19' E 015°11'10 9.7
2015-Jul-25 10:33N 55°13' E 014°58'6 6.4
2015-Jul-25 09:33N 55°17' E 015°07'1 1.3
2015-Jul-25 08:33N 55°16' E 015°05'5 5.2
2015-Jul-25 07:33N 55°13' E 014°58'0 0.2
2015-Jul-25 06:34N 55°13' E 014°58'0 0.3
2015-Jul-25 05:33N 55°13' E 014°58'0 0.0
2015-Jul-25 04:33N 55°13' E 014°58'0 0.0
2015-Jul-25 03:33N 55°13' E 014°58'0 0.0
2015-Jul-25 02:33N 55°13' E 014°58'0 0.0
2015-Jul-25 01:33N 55°13' E 014°58'0 0.0
2015-Jul-25 00:33N 55°13' E 014°58'0 0.0
2015-Jul-24 23:33N 55°13' E 014°58'0 0.0
2015-Jul-24 22:33N 55°13' E 014°58'0 0.0
2015-Jul-24 21:33N 55°13' E 014°58'0 0.0
2015-Jul-24 20:33N 55°13' E 014°58'0 0.0
2015-Jul-24 19:33N 55°13' E 014°58'0 0.0
2015-Jul-24 18:33N 55°13' E 014°58'0 0.0
2015-Jul-24 17:33N 55°13' E 014°58'0 0.0
2015-Jul-24 16:33N 55°13' E 014°58'0 0.0
2015-Jul-24 15:33N 55°13' E 014°58'7 6.6
2015-Jul-24 14:33N 55°17' E 015°07'2 1.5
2015-Jul-24 13:33N 55°16' E 015°05'1 1.2
2015-Jul-24 12:33N 55°15' E 015°03'6 5.9
2015-Jul-24 11:33N 55°19' E 015°11'9 9.3
2015-Jul-24 10:33N 55°13' E 014°59'6 5.5
2015-Jul-24 09:33N 55°17' E 015°06'0 0.3
2015-Jul-24 08:33N 55°17' E 015°06'6 5.9
2015-Jul-24 07:33N 55°13' E 014°58'0 0.0
2015-Jul-24 06:33N 55°13' E 014°58'0 0.0
2015-Jul-24 05:33N 55°13' E 014°58'0 0.0
2015-Jul-24 04:33N 55°13' E 014°58'0 0.0
2015-Jul-24 03:33N 55°13' E 014°58'0 0.0
2015-Jul-24 02:33N 55°13' E 014°58'0 0.0
2015-Jul-24 01:33N 55°13' E 014°58'0 0.0
2015-Jul-24 00:33N 55°13' E 014°58'0 0.0
2015-Jul-23 23:33N 55°13' E 014°58'0 0.0
2015-Jul-23 22:33N 55°13' E 014°58'0 0.0
2015-Jul-23 21:33N 55°13' E 014°58'0 0.0
2015-Jul-23 20:33N 55°13' E 014°58'0 0.0
2015-Jul-23 19:33N 55°13' E 014°58'0 0.0
2015-Jul-23 18:33N 55°13' E 014°58'10 9.6
2015-Jul-23 17:33N 55°19' E 015°11'5 5.4
2015-Jul-23 16:33N 55°16' E 015°02'4 4.3
2015-Jul-23 15:33N 55°13' E 014°58'8 7.7
2015-Jul-23 14:33N 55°18' E 015°09'5 4.6
2015-Jul-23 13:33N 55°17' E 015°01'3 3.1
2015-Jul-23 12:33N 55°15' E 015°06'5 5.1
2015-Jul-23 11:33N 55°19' E 015°11'9 9.4
2015-Jul-23 10:33N 55°13' E 014°59'7 6.8
2015-Jul-23 09:33N 55°18' E 015°08'3 2.7
2015-Jul-23 08:33N 55°18' E 015°03'5 5.5
2015-Jul-23 07:33N 55°13' E 014°58'0 0.0
2015-Jul-23 06:33N 55°13' E 014°58'0 0.0
2015-Jul-23 05:33N 55°13' E 014°58'0 0.0
2015-Jul-23 04:33N 55°13' E 014°58'0 0.0
2015-Jul-23 03:33N 55°13' E 014°58'0 0.0
2015-Jul-23 02:33N 55°13' E 014°58'0 0.0
2015-Jul-23 01:33N 55°13' E 014°58'0 0.0
2015-Jul-23 00:33N 55°13' E 014°58'0 0.0
2015-Jul-22 23:33N 55°13' E 014°58'0 0.0
2015-Jul-22 22:33N 55°13' E 014°58'0 0.0
2015-Jul-22 21:33N 55°13' E 014°58'0 0.0
2015-Jul-22 20:33N 55°13' E 014°58'0 0.0
2015-Jul-22 19:33N 55°13' E 014°58'0 0.0
2015-Jul-22 18:33N 55°13' E 014°58'1010.0
2015-Jul-22 17:33N 55°20' E 015°11'6 5.6
2015-Jul-22 16:33N 55°16' E 015°03'5 4.5
2015-Jul-22 15:33N 55°13' E 014°58'7 7.1
2015-Jul-22 14:33N 55°18' E 015°07'3 2.6
2015-Jul-22 13:33N 55°16' E 015°04'1 1.0
2015-Jul-22 12:33N 55°15' E 015°03'6 6.3
2015-Jul-22 11:33N 55°19' E 015°11'10 9.8
2015-Jul-22 10:33N 55°13' E 014°58'5 5.1
2015-Jul-22 09:33N 55°16' E 015°05'1 1.0
2015-Jul-22 08:33N 55°17' E 015°06'6 6.1
2015-Jul-22 07:33N 55°13' E 014°58'0 0.0
2015-Jul-22 06:33N 55°13' E 014°58'0 0.0
2015-Jul-22 05:33N 55°13' E 014°58'0 0.0
2015-Jul-22 04:33N 55°13' E 014°58'0 0.0
2015-Jul-22 03:33N 55°13' E 014°58'0 0.0
2015-Jul-22 02:33N 55°13' E 014°58'0 0.0
2015-Jul-22 01:33N 55°13' E 014°58'0 0.0
2015-Jul-22 00:33N 55°13' E 014°58'0 0.0
2015-Jul-21 23:33N 55°13' E 014°58'0 0.0
2015-Jul-21 22:33N 55°13' E 014°58'0 0.0
2015-Jul-21 21:33N 55°13' E 014°58'0 0.0
2015-Jul-21 20:33N 55°13' E 014°58'0 0.0
2015-Jul-21 19:33N 55°13' E 014°58'0 0.0
2015-Jul-21 18:33N 55°13' E 014°58'10 9.9
2015-Jul-21 17:33N 55°19' E 015°11'6 5.7
2015-Jul-21 16:33N 55°17' E 015°02'5 4.7
2015-Jul-21 15:33N 55°13' E 014°58'7 7.1
2015-Jul-21 14:33N 55°18' E 015°07'2 1.9
2015-Jul-21 13:33N 55°17' E 015°05'2 1.5
2015-Jul-21 12:33N 55°15' E 015°03'6 6.0
2015-Jul-21 11:33N 55°19' E 015°11'10 9.6
2015-Jul-21 10:33N 55°13' E 014°59'6 6.0
2015-Jul-21 09:33N 55°17' E 015°06'1 0.6
2015-Jul-21 08:33N 55°17' E 015°06'6 6.4
2015-Jul-21 07:33N 55°13' E 014°58'0 0.0
2015-Jul-21 06:33N 55°13' E 014°58'0 0.0
2015-Jul-21 05:33N 55°13' E 014°58'0 0.0
2015-Jul-21 04:33N 55°13' E 014°58'0 0.0
2015-Jul-21 03:33N 55°13' E 014°58'0 0.0
2015-Jul-21 02:33N 55°13' E 014°58'0 0.0
2015-Jul-21 01:33N 55°13' E 014°58'0 0.0
2015-Jul-21 00:33N 55°13' E 014°58'0 0.0
2015-Jul-20 23:33N 55°13' E 014°58'0 0.0
2015-Jul-20 22:33N 55°13' E 014°58'0 0.0
2015-Jul-20 21:32N 55°13' E 014°58'0 0.0
2015-Jul-20 20:33N 55°13' E 014°58'0 0.0
2015-Jul-20 19:33N 55°13' E 014°58'0 0.0
2015-Jul-20 18:33N 55°13' E 014°58'0 0.0
2015-Jul-20 17:33N 55°13' E 014°58'0 0.0
2015-Jul-20 16:33N 55°13' E 014°58'0 0.0
2015-Jul-20 15:33N 55°13' E 014°58'7 7.3
2015-Jul-20 14:33N 55°17' E 015°09'4 3.6
2015-Jul-20 13:33N 55°17' E 015°03'3 2.9
2015-Jul-20 12:33N 55°15' E 015°06'6 5.5
2015-Jul-20 11:33N 55°19' E 015°11'10 9.6
2015-Jul-20 10:33N 55°13' E 014°58'6 5.9
2015-Jul-20 09:33N 55°17' E 015°06'2 1.6
2015-Jul-20 08:33N 55°18' E 015°03'6 5.6
2015-Jul-20 07:33N 55°13' E 014°58'0 0.0
2015-Jul-20 06:33N 55°13' E 014°58'0 0.0
2015-Jul-20 05:33N 55°13' E 014°58'0 0.0
2015-Jul-20 04:33N 55°13' E 014°58'0 0.0
2015-Jul-20 03:33N 55°13' E 014°58'0 0.0
2015-Jul-20 02:33N 55°13' E 014°58'0 0.0
2015-Jul-20 01:33N 55°13' E 014°58'0 0.0
2015-Jul-20 00:33N 55°13' E 014°58'0 0.0
2015-Jul-19 23:33N 55°13' E 014°58'0 0.0
2015-Jul-19 22:33N 55°13' E 014°58'0 0.0
2015-Jul-19 21:32N 55°13' E 014°58'0 0.0
2015-Jul-19 20:33N 55°13' E 014°58'0 0.0
2015-Jul-19 19:28N 55°13' E 014°58'0 0.0
2015-Jul-19 18:33N 55°13' E 014°58'0 0.0
2015-Jul-19 17:33N 55°13' E 014°58'0 0.0
2015-Jul-19 16:33N 55°13' E 014°58'0 0.0
2015-Jul-19 15:33N 55°13' E 014°58'7 6.9
2015-Jul-19 14:33N 55°17' E 015°07'2 2.0
2015-Jul-19 13:33N 55°16' E 015°04'2 1.6
2015-Jul-19 12:33N 55°15' E 015°02'7 6.5
2015-Jul-19 11:33N 55°19' E 015°11'10 9.6
2015-Jul-19 10:33N 55°13' E 014°58'7 6.4
2015-Jul-19 09:30N 55°17' E 015°07'1 1.4
2015-Jul-19 08:33N 55°17' E 015°05'6 5.4
2015-Jul-19 07:30N 55°13' E 014°58'0 0.0
2015-Jul-19 06:33N 55°13' E 014°58'0 0.0
2015-Jul-19 05:33N 55°13' E 014°58'0 0.0
2015-Jul-19 04:33N 55°13' E 014°58'0 0.0
2015-Jul-19 00:33N 55°13' E 014°58'0 0.0
2015-Jul-18 23:33N 55°13' E 014°58'0 0.0
2015-Jul-18 22:33N 55°13' E 014°58'0 0.0
2015-Jul-18 21:33N 55°13' E 014°58'0 0.0
2015-Jul-18 20:33N 55°13' E 014°58'  

Dump ship's entire track history